sensor_id;sensor_type;location;lat;lon;timestamp;P1;durP1;ratioP1;P2;durP2;ratioP2
58681;SDS011;44460;40.162;18.294;2023-02-28T00:00:27;70.27;;;10.47;;
58681;SDS011;44460;40.162;18.294;2023-02-28T00:02:53;107.50;;;13.02;;
58681;SDS011;44460;40.162;18.294;2023-02-28T00:05:19;71.57;;;10.02;;
58681;SDS011;44460;40.162;18.294;2023-02-28T00:07:45;90.20;;;11.80;;
58681;SDS011;44460;40.162;18.294;2023-02-28T00:10:12;96.15;;;11.90;;
58681;SDS011;44460;40.162;18.294;2023-02-28T00:12:38;110.32;;;12.75;;
58681;SDS011;44460;40.162;18.294;2023-02-28T00:15:07;93.93;;;11.32;;
58681;SDS011;44460;40.162;18.294;2023-02-28T00:17:33;98.15;;;11.27;;
58681;SDS011;44460;40.162;18.294;2023-02-28T00:19:59;95.18;;;11.95;;
58681;SDS011;44460;40.162;18.294;2023-02-28T00:22:47;111.90;;;11.43;;
58681;SDS011;44460;40.162;18.294;2023-02-28T00:25:13;88.30;;;11.35;;
58681;SDS011;44460;40.162;18.294;2023-02-28T00:27:39;104.25;;;12.95;;
58681;SDS011;44460;40.162;18.294;2023-02-28T00:30:05;97.80;;;13.77;;
58681;SDS011;44460;40.162;18.294;2023-02-28T00:32:31;106.38;;;13.55;;
58681;SDS011;44460;40.162;18.294;2023-02-28T00:34:56;102.13;;;12.80;;
58681;SDS011;44460;40.162;18.294;2023-02-28T00:37:22;102.65;;;13.25;;
58681;SDS011;44460;40.162;18.294;2023-02-28T00:39:47;119.90;;;14.00;;
58681;SDS011;44460;40.162;18.294;2023-02-28T00:42:14;112.88;;;11.82;;
58681;SDS011;44460;40.162;18.294;2023-02-28T00:44:40;130.73;;;15.60;;
58681;SDS011;44460;40.162;18.294;2023-02-28T00:47:05;93.72;;;12.32;;
58681;SDS011;44460;40.162;18.294;2023-02-28T00:49:31;97.80;;;13.23;;
58681;SDS011;44460;40.162;18.294;2023-02-28T00:51:57;111.60;;;12.82;;
58681;SDS011;44460;40.162;18.294;2023-02-28T00:56:50;90.55;;;12.30;;
58681;SDS011;44460;40.162;18.294;2023-02-28T00:59:16;98.32;;;11.57;;
58681;SDS011;44460;40.162;18.294;2023-02-28T01:01:44;108.53;;;12.77;;
58681;SDS011;44460;40.162;18.294;2023-02-28T01:04:09;99.38;;;13.48;;
58681;SDS011;44460;40.162;18.294;2023-02-28T01:06:34;97.95;;;14.52;;
58681;SDS011;44460;40.162;18.294;2023-02-28T01:09:01;101.72;;;11.68;;
58681;SDS011;44460;40.162;18.294;2023-02-28T01:11:28;128.25;;;12.45;;
58681;SDS011;44460;40.162;18.294;2023-02-28T01:13:53;102.03;;;11.68;;
58681;SDS011;44460;40.162;18.294;2023-02-28T01:16:18;112.43;;;14.75;;
58681;SDS011;44460;40.162;18.294;2023-02-28T01:18:44;108.28;;;15.93;;
58681;SDS011;44460;40.162;18.294;2023-02-28T01:21:11;92.60;;;13.52;;
58681;SDS011;44460;40.162;18.294;2023-02-28T01:23:38;100.90;;;14.00;;
58681;SDS011;44460;40.162;18.294;2023-02-28T01:26:07;96.63;;;14.93;;
58681;SDS011;44460;40.162;18.294;2023-02-28T01:28:39;108.88;;;15.02;;
58681;SDS011;44460;40.162;18.294;2023-02-28T01:31:04;132.95;;;13.52;;
58681;SDS011;44460;40.162;18.294;2023-02-28T01:33:30;97.25;;;14.23;;
58681;SDS011;44460;40.162;18.294;2023-02-28T01:36:03;102.18;;;12.52;;
58681;SDS011;44460;40.162;18.294;2023-02-28T01:38:29;124.07;;;13.57;;
58681;SDS011;44460;40.162;18.294;2023-02-28T01:40:54;102.43;;;12.45;;
58681;SDS011;44460;40.162;18.294;2023-02-28T01:43:24;96.93;;;10.35;;
58681;SDS011;44460;40.162;18.294;2023-02-28T01:45:50;101.72;;;11.52;;
58681;SDS011;44460;40.162;18.294;2023-02-28T01:48:16;103.03;;;11.55;;
58681;SDS011;44460;40.162;18.294;2023-02-28T01:50:43;105.45;;;10.98;;
58681;SDS011;44460;40.162;18.294;2023-02-28T01:53:10;106.95;;;12.68;;
58681;SDS011;44460;40.162;18.294;2023-02-28T01:55:39;120.35;;;13.00;;
58681;SDS011;44460;40.162;18.294;2023-02-28T01:58:06;96.30;;;12.13;;
58681;SDS011;44460;40.162;18.294;2023-02-28T02:00:32;104.82;;;13.55;;
58681;SDS011;44460;40.162;18.294;2023-02-28T02:03:04;104.63;;;12.43;;
58681;SDS011;44460;40.162;18.294;2023-02-28T02:05:30;100.60;;;11.20;;
58681;SDS011;44460;40.162;18.294;2023-02-28T02:08:06;93.15;;;11.32;;
58681;SDS011;44460;40.162;18.294;2023-02-28T02:10:36;93.70;;;13.00;;
58681;SDS011;44460;40.162;18.294;2023-02-28T02:13:10;102.28;;;11.30;;
58681;SDS011;44460;40.162;18.294;2023-02-28T02:18:27;87.93;;;11.50;;
58681;SDS011;44460;40.162;18.294;2023-02-28T02:25:56;108.72;;;12.75;;
58681;SDS011;44460;40.162;18.294;2023-02-28T02:28:35;120.37;;;14.10;;
58681;SDS011;44460;40.162;18.294;2023-02-28T02:31:36;108.72;;;12.02;;
58681;SDS011;44460;40.162;18.294;2023-02-28T02:36:38;115.45;;;11.82;;
58681;SDS011;44460;40.162;18.294;2023-02-28T02:39:06;112.18;;;11.57;;
58681;SDS011;44460;40.162;18.294;2023-02-28T02:44:21;111.53;;;13.68;;
58681;SDS011;44460;40.162;18.294;2023-02-28T02:46:48;81.25;;;10.52;;
58681;SDS011;44460;40.162;18.294;2023-02-28T02:49:25;112.10;;;13.32;;
58681;SDS011;44460;40.162;18.294;2023-02-28T02:51:54;112.63;;;13.45;;
58681;SDS011;44460;40.162;18.294;2023-02-28T02:54:24;113.95;;;13.23;;
58681;SDS011;44460;40.162;18.294;2023-02-28T02:56:54;112.80;;;13.18;;
58681;SDS011;44460;40.162;18.294;2023-02-28T02:59:21;99.15;;;10.95;;
58681;SDS011;44460;40.162;18.294;2023-02-28T03:01:50;117.75;;;13.20;;
58681;SDS011;44460;40.162;18.294;2023-02-28T03:04:16;85.88;;;12.80;;
58681;SDS011;44460;40.162;18.294;2023-02-28T03:06:43;111.97;;;12.77;;
58681;SDS011;44460;40.162;18.294;2023-02-28T03:09:09;122.78;;;13.77;;
58681;SDS011;44460;40.162;18.294;2023-02-28T03:11:35;97.88;;;12.52;;
58681;SDS011;44460;40.162;18.294;2023-02-28T03:14:04;126.10;;;14.68;;
58681;SDS011;44460;40.162;18.294;2023-02-28T03:24:16;124.30;;;15.82;;
58681;SDS011;44460;40.162;18.294;2023-02-28T03:26:45;125.40;;;14.15;;
58681;SDS011;44460;40.162;18.294;2023-02-28T03:31:41;117.50;;;14.25;;
58681;SDS011;44460;40.162;18.294;2023-02-28T03:34:10;121.65;;;13.93;;
58681;SDS011;44460;40.162;18.294;2023-02-28T03:36:38;104.03;;;13.68;;
58681;SDS011;44460;40.162;18.294;2023-02-28T03:39:09;142.85;;;15.23;;
58681;SDS011;44460;40.162;18.294;2023-02-28T03:41:38;93.78;;;14.00;;
58681;SDS011;44460;40.162;18.294;2023-02-28T03:44:09;102.10;;;14.10;;
58681;SDS011;44460;40.162;18.294;2023-02-28T03:46:41;118.88;;;13.30;;
58681;SDS011;44460;40.162;18.294;2023-02-28T03:49:13;117.40;;;13.10;;
58681;SDS011;44460;40.162;18.294;2023-02-28T03:51:41;131.40;;;14.75;;
58681;SDS011;44460;40.162;18.294;2023-02-28T03:54:09;128.65;;;14.07;;
58681;SDS011;44460;40.162;18.294;2023-02-28T03:56:44;106.05;;;12.45;;
58681;SDS011;44460;40.162;18.294;2023-02-28T04:01:47;124.85;;;14.02;;
58681;SDS011;44460;40.162;18.294;2023-02-28T04:04:13;109.75;;;13.30;;
58681;SDS011;44460;40.162;18.294;2023-02-28T04:06:39;127.82;;;13.18;;
58681;SDS011;44460;40.162;18.294;2023-02-28T04:09:06;102.63;;;11.45;;
58681;SDS011;44460;40.162;18.294;2023-02-28T04:11:38;109.05;;;13.05;;
58681;SDS011;44460;40.162;18.294;2023-02-28T04:14:06;113.28;;;11.98;;
58681;SDS011;44460;40.162;18.294;2023-02-28T04:16:31;108.13;;;12.40;;
58681;SDS011;44460;40.162;18.294;2023-02-28T04:18:57;103.85;;;12.65;;
58681;SDS011;44460;40.162;18.294;2023-02-28T04:21:28;107.25;;;12.77;;
58681;SDS011;44460;40.162;18.294;2023-02-28T04:23:53;112.97;;;12.75;;
58681;SDS011;44460;40.162;18.294;2023-02-28T04:26:18;96.00;;;10.50;;
58681;SDS011;44460;40.162;18.294;2023-02-28T04:28:44;106.28;;;11.85;;
58681;SDS011;44460;40.162;18.294;2023-02-28T04:31:09;114.25;;;12.73;;
58681;SDS011;44460;40.162;18.294;2023-02-28T04:33:35;95.57;;;14.73;;
58681;SDS011;44460;40.162;18.294;2023-02-28T04:36:03;122.28;;;12.77;;
58681;SDS011;44460;40.162;18.294;2023-02-28T04:38:30;123.43;;;15.32;;
58681;SDS011;44460;40.162;18.294;2023-02-28T04:40:58;111.05;;;13.73;;
58681;SDS011;44460;40.162;18.294;2023-02-28T04:43:23;83.75;;;10.98;;
58681;SDS011;44460;40.162;18.294;2023-02-28T04:45:49;106.05;;;11.35;;
58681;SDS011;44460;40.162;18.294;2023-02-28T04:48:14;123.68;;;14.18;;
58681;SDS011;44460;40.162;18.294;2023-02-28T04:50:40;136.73;;;12.52;;
58681;SDS011;44460;40.162;18.294;2023-02-28T04:53:05;101.97;;;14.32;;
58681;SDS011;44460;40.162;18.294;2023-02-28T04:55:30;113.70;;;12.88;;
58681;SDS011;44460;40.162;18.294;2023-02-28T04:57:56;101.03;;;12.20;;
58681;SDS011;44460;40.162;18.294;2023-02-28T05:00:21;100.57;;;10.82;;
58681;SDS011;44460;40.162;18.294;2023-02-28T05:02:47;95.95;;;13.02;;
58681;SDS011;44460;40.162;18.294;2023-02-28T05:05:12;114.65;;;13.85;;
58681;SDS011;44460;40.162;18.294;2023-02-28T05:07:43;138.55;;;14.57;;
58681;SDS011;44460;40.162;18.294;2023-02-28T05:10:09;121.43;;;11.20;;
58681;SDS011;44460;40.162;18.294;2023-02-28T05:12:34;102.70;;;12.80;;
58681;SDS011;44460;40.162;18.294;2023-02-28T05:15:00;105.65;;;14.02;;
58681;SDS011;44460;40.162;18.294;2023-02-28T05:17:27;104.68;;;13.77;;
58681;SDS011;44460;40.162;18.294;2023-02-28T05:19:52;111.05;;;11.68;;
58681;SDS011;44460;40.162;18.294;2023-02-28T05:22:17;118.32;;;11.80;;
58681;SDS011;44460;40.162;18.294;2023-02-28T05:24:43;87.55;;;11.35;;
58681;SDS011;44460;40.162;18.294;2023-02-28T05:27:08;109.65;;;14.23;;
58681;SDS011;44460;40.162;18.294;2023-02-28T05:29:34;93.03;;;10.57;;
58681;SDS011;44460;40.162;18.294;2023-02-28T05:32:10;85.05;;;12.82;;
58681;SDS011;44460;40.162;18.294;2023-02-28T05:34:36;98.68;;;12.98;;
58681;SDS011;44460;40.162;18.294;2023-02-28T05:37:02;103.38;;;14.13;;
58681;SDS011;44460;40.162;18.294;2023-02-28T05:39:27;120.93;;;14.82;;
58681;SDS011;44460;40.162;18.294;2023-02-28T05:41:53;95.53;;;11.70;;
58681;SDS011;44460;40.162;18.294;2023-02-28T05:44:18;103.60;;;12.30;;
58681;SDS011;44460;40.162;18.294;2023-02-28T05:46:43;107.55;;;11.60;;
58681;SDS011;44460;40.162;18.294;2023-02-28T05:49:09;99.53;;;11.60;;
58681;SDS011;44460;40.162;18.294;2023-02-28T05:51:34;104.93;;;14.23;;
58681;SDS011;44460;40.162;18.294;2023-02-28T05:54:01;116.55;;;12.10;;
58681;SDS011;44460;40.162;18.294;2023-02-28T05:56:27;113.32;;;12.52;;
58681;SDS011;44460;40.162;18.294;2023-02-28T05:58:53;106.35;;;12.35;;
58681;SDS011;44460;40.162;18.294;2023-02-28T06:01:23;97.05;;;11.82;;
58681;SDS011;44460;40.162;18.294;2023-02-28T06:03:49;122.55;;;11.85;;
58681;SDS011;44460;40.162;18.294;2023-02-28T06:06:15;103.60;;;13.25;;
58681;SDS011;44460;40.162;18.294;2023-02-28T06:08:41;96.75;;;11.10;;
58681;SDS011;44460;40.162;18.294;2023-02-28T06:11:08;113.60;;;13.03;;
58681;SDS011;44460;40.162;18.294;2023-02-28T06:13:34;113.78;;;13.13;;
58681;SDS011;44460;40.162;18.294;2023-02-28T06:16:02;110.45;;;11.40;;
58681;SDS011;44460;40.162;18.294;2023-02-28T06:18:27;92.85;;;11.20;;
58681;SDS011;44460;40.162;18.294;2023-02-28T06:20:53;127.47;;;14.80;;
58681;SDS011;44460;40.162;18.294;2023-02-28T06:23:19;102.43;;;12.98;;
58681;SDS011;44460;40.162;18.294;2023-02-28T06:25:45;110.35;;;13.35;;
58681;SDS011;44460;40.162;18.294;2023-02-28T06:28:10;112.40;;;13.63;;
58681;SDS011;44460;40.162;18.294;2023-02-28T06:30:37;106.72;;;12.82;;
58681;SDS011;44460;40.162;18.294;2023-02-28T06:33:02;103.32;;;14.45;;
58681;SDS011;44460;40.162;18.294;2023-02-28T06:35:27;97.18;;;11.80;;
58681;SDS011;44460;40.162;18.294;2023-02-28T06:37:53;114.82;;;12.65;;
58681;SDS011;44460;40.162;18.294;2023-02-28T06:40:18;99.22;;;11.82;;
58681;SDS011;44460;40.162;18.294;2023-02-28T06:42:44;100.05;;;10.48;;
58681;SDS011;44460;40.162;18.294;2023-02-28T06:45:10;88.78;;;11.48;;
58681;SDS011;44460;40.162;18.294;2023-02-28T06:47:36;102.85;;;14.40;;
58681;SDS011;44460;40.162;18.294;2023-02-28T06:50:01;96.70;;;11.27;;
58681;SDS011;44460;40.162;18.294;2023-02-28T06:52:27;107.28;;;13.25;;
58681;SDS011;44460;40.162;18.294;2023-02-28T06:54:52;108.07;;;11.13;;
58681;SDS011;44460;40.162;18.294;2023-02-28T06:57:28;100.13;;;13.02;;
58681;SDS011;44460;40.162;18.294;2023-02-28T06:59:57;110.47;;;13.52;;
58681;SDS011;44460;40.162;18.294;2023-02-28T07:02:22;99.50;;;11.98;;
58681;SDS011;44460;40.162;18.294;2023-02-28T07:04:47;98.50;;;13.63;;
58681;SDS011;44460;40.162;18.294;2023-02-28T07:07:13;106.28;;;14.45;;
58681;SDS011;44460;40.162;18.294;2023-02-28T07:09:38;98.05;;;12.77;;
58681;SDS011;44460;40.162;18.294;2023-02-28T07:12:04;106.28;;;12.55;;
58681;SDS011;44460;40.162;18.294;2023-02-28T07:14:29;101.93;;;11.45;;
58681;SDS011;44460;40.162;18.294;2023-02-28T07:16:54;104.55;;;12.98;;
58681;SDS011;44460;40.162;18.294;2023-02-28T07:19:20;107.53;;;11.55;;
58681;SDS011;44460;40.162;18.294;2023-02-28T07:21:45;107.38;;;12.13;;
58681;SDS011;44460;40.162;18.294;2023-02-28T07:24:11;87.05;;;11.82;;
58681;SDS011;44460;40.162;18.294;2023-02-28T07:26:36;96.22;;;12.57;;
58681;SDS011;44460;40.162;18.294;2023-02-28T07:29:02;108.90;;;12.32;;
58681;SDS011;44460;40.162;18.294;2023-02-28T07:31:27;81.05;;;10.10;;
58681;SDS011;44460;40.162;18.294;2023-02-28T07:33:53;88.53;;;12.73;;
58681;SDS011;44460;40.162;18.294;2023-02-28T07:36:19;105.63;;;12.18;;
58681;SDS011;44460;40.162;18.294;2023-02-28T07:38:45;64.40;;;7.78;;
58681;SDS011;44460;40.162;18.294;2023-02-28T07:41:13;85.90;;;10.45;;
58681;SDS011;44460;40.162;18.294;2023-02-28T07:43:40;79.25;;;9.65;;
58681;SDS011;44460;40.162;18.294;2023-02-28T07:46:07;72.78;;;9.13;;
58681;SDS011;44460;40.162;18.294;2023-02-28T07:48:32;84.20;;;10.38;;
58681;SDS011;44460;40.162;18.294;2023-02-28T07:50:58;74.75;;;9.43;;
58681;SDS011;44460;40.162;18.294;2023-02-28T07:53:24;77.07;;;9.63;;
58681;SDS011;44460;40.162;18.294;2023-02-28T07:55:50;76.47;;;8.85;;
58681;SDS011;44460;40.162;18.294;2023-02-28T07:58:15;84.20;;;9.05;;
58681;SDS011;44460;40.162;18.294;2023-02-28T08:00:40;86.78;;;9.80;;
58681;SDS011;44460;40.162;18.294;2023-02-28T08:03:06;70.28;;;9.23;;
58681;SDS011;44460;40.162;18.294;2023-02-28T08:05:31;67.18;;;7.45;;
58681;SDS011;44460;40.162;18.294;2023-02-28T08:07:56;77.68;;;8.02;;
58681;SDS011;44460;40.162;18.294;2023-02-28T08:10:22;81.38;;;9.57;;
58681;SDS011;44460;40.162;18.294;2023-02-28T08:12:49;66.25;;;8.23;;
58681;SDS011;44460;40.162;18.294;2023-02-28T08:15:14;87.45;;;9.55;;
58681;SDS011;44460;40.162;18.294;2023-02-28T08:17:39;74.32;;;9.60;;
58681;SDS011;44460;40.162;18.294;2023-02-28T08:20:05;101.40;;;17.75;;
58681;SDS011;44460;40.162;18.294;2023-02-28T08:22:32;128.13;;;33.47;;
58681;SDS011;44460;40.162;18.294;2023-02-28T08:24:57;74.28;;;11.75;;
58681;SDS011;44460;40.162;18.294;2023-02-28T08:27:22;79.32;;;9.23;;
58681;SDS011;44460;40.162;18.294;2023-02-28T08:29:48;86.13;;;10.43;;
58681;SDS011;44460;40.162;18.294;2023-02-28T08:32:13;83.90;;;9.15;;
58681;SDS011;44460;40.162;18.294;2023-02-28T08:34:39;86.65;;;9.48;;
58681;SDS011;44460;40.162;18.294;2023-02-28T08:37:05;61.35;;;8.95;;
58681;SDS011;44460;40.162;18.294;2023-02-28T08:39:33;60.75;;;8.68;;
58681;SDS011;44460;40.162;18.294;2023-02-28T08:44:24;73.53;;;9.02;;
58681;SDS011;44460;40.162;18.294;2023-02-28T08:46:49;67.55;;;9.77;;
58681;SDS011;44460;40.162;18.294;2023-02-28T08:51:43;73.65;;;9.80;;
58681;SDS011;44460;40.162;18.294;2023-02-28T08:54:09;73.90;;;8.63;;
58681;SDS011;44460;40.162;18.294;2023-02-28T08:56:37;76.68;;;9.73;;
58681;SDS011;44460;40.162;18.294;2023-02-28T08:59:03;89.35;;;10.38;;
58681;SDS011;44460;40.162;18.294;2023-02-28T09:01:28;90.55;;;10.05;;
58681;SDS011;44460;40.162;18.294;2023-02-28T09:03:54;73.07;;;8.77;;
58681;SDS011;44460;40.162;18.294;2023-02-28T09:06:21;65.07;;;8.13;;
58681;SDS011;44460;40.162;18.294;2023-02-28T09:08:47;68.40;;;8.35;;
58681;SDS011;44460;40.162;18.294;2023-02-28T09:11:13;72.70;;;10.35;;
58681;SDS011;44460;40.162;18.294;2023-02-28T09:13:38;65.57;;;7.65;;
58681;SDS011;44460;40.162;18.294;2023-02-28T09:16:05;74.90;;;9.60;;
58681;SDS011;44460;40.162;18.294;2023-02-28T09:18:31;67.97;;;9.23;;
58681;SDS011;44460;40.162;18.294;2023-02-28T09:20:58;64.28;;;7.45;;
58681;SDS011;44460;40.162;18.294;2023-02-28T09:23:24;62.92;;;8.30;;
58681;SDS011;44460;40.162;18.294;2023-02-28T09:25:50;103.07;;;10.57;;
58681;SDS011;44460;40.162;18.294;2023-02-28T09:28:16;57.95;;;8.73;;
58681;SDS011;44460;40.162;18.294;2023-02-28T09:30:42;74.50;;;9.93;;
58681;SDS011;44460;40.162;18.294;2023-02-28T09:33:08;80.03;;;10.38;;
58681;SDS011;44460;40.162;18.294;2023-02-28T09:35:34;83.20;;;8.38;;
58681;SDS011;44460;40.162;18.294;2023-02-28T09:37:59;67.80;;;7.97;;
58681;SDS011;44460;40.162;18.294;2023-02-28T09:40:27;63.53;;;6.85;;
58681;SDS011;44460;40.162;18.294;2023-02-28T09:42:55;68.53;;;7.90;;
58681;SDS011;44460;40.162;18.294;2023-02-28T09:45:30;55.50;;;6.90;;
58681;SDS011;44460;40.162;18.294;2023-02-28T09:48:06;66.70;;;7.63;;
58681;SDS011;44460;40.162;18.294;2023-02-28T09:50:37;87.25;;;8.15;;
58681;SDS011;44460;40.162;18.294;2023-02-28T09:53:06;64.88;;;6.32;;
58681;SDS011;44460;40.162;18.294;2023-02-28T09:55:45;55.45;;;6.90;;
58681;SDS011;44460;40.162;18.294;2023-02-28T09:58:16;59.15;;;7.35;;
58681;SDS011;44460;40.162;18.294;2023-02-28T10:00:43;91.32;;;17.38;;
58681;SDS011;44460;40.162;18.294;2023-02-28T10:08:36;59.83;;;9.10;;
58681;SDS011;44460;40.162;18.294;2023-02-28T10:11:06;101.88;;;22.15;;
58681;SDS011;44460;40.162;18.294;2023-02-28T10:16:18;57.15;;;6.80;;
58681;SDS011;44460;40.162;18.294;2023-02-28T10:18:56;57.85;;;6.38;;
58681;SDS011;44460;40.162;18.294;2023-02-28T10:21:27;53.88;;;8.52;;
58681;SDS011;44460;40.162;18.294;2023-02-28T10:23:56;62.85;;;6.55;;
58681;SDS011;44460;40.162;18.294;2023-02-28T10:26:24;39.40;;;5.93;;
58681;SDS011;44460;40.162;18.294;2023-02-28T10:28:51;70.85;;;10.00;;
58681;SDS011;44460;40.162;18.294;2023-02-28T10:31:18;55.00;;;7.05;;
58681;SDS011;44460;40.162;18.294;2023-02-28T10:33:43;55.45;;;7.10;;
58681;SDS011;44460;40.162;18.294;2023-02-28T10:36:11;58.65;;;7.18;;
58681;SDS011;44460;40.162;18.294;2023-02-28T10:38:39;49.38;;;6.07;;
58681;SDS011;44460;40.162;18.294;2023-02-28T10:41:08;56.03;;;6.90;;
58681;SDS011;44460;40.162;18.294;2023-02-28T10:43:34;76.68;;;7.60;;
58681;SDS011;44460;40.162;18.294;2023-02-28T10:50:54;54.28;;;6.82;;
58681;SDS011;44460;40.162;18.294;2023-02-28T10:58:23;49.67;;;6.25;;
58681;SDS011;44460;40.162;18.294;2023-02-28T11:00:49;52.65;;;7.85;;
58681;SDS011;44460;40.162;18.294;2023-02-28T11:03:29;48.65;;;6.43;;
58681;SDS011;44460;40.162;18.294;2023-02-28T11:05:55;56.45;;;6.25;;
58681;SDS011;44460;40.162;18.294;2023-02-28T11:08:21;44.42;;;6.95;;
58681;SDS011;44460;40.162;18.294;2023-02-28T11:10:47;46.58;;;6.78;;
58681;SDS011;44460;40.162;18.294;2023-02-28T11:13:16;38.92;;;5.28;;
58681;SDS011;44460;40.162;18.294;2023-02-28T11:15:43;38.75;;;5.68;;
58681;SDS011;44460;40.162;18.294;2023-02-28T11:20:55;62.50;;;7.25;;
58681;SDS011;44460;40.162;18.294;2023-02-28T11:23:21;43.42;;;6.03;;
58681;SDS011;44460;40.162;18.294;2023-02-28T11:25:51;47.53;;;6.50;;
58681;SDS011;44460;40.162;18.294;2023-02-28T11:28:26;46.17;;;6.68;;
58681;SDS011;44460;40.162;18.294;2023-02-28T11:36:03;62.30;;;6.75;;
58681;SDS011;44460;40.162;18.294;2023-02-28T11:38:28;43.42;;;6.75;;
58681;SDS011;44460;40.162;18.294;2023-02-28T11:43:27;55.15;;;6.72;;
58681;SDS011;44460;40.162;18.294;2023-02-28T11:49:17;53.30;;;7.45;;
58681;SDS011;44460;40.162;18.294;2023-02-28T11:51:35;55.15;;;7.53;;
58681;SDS011;44460;40.162;18.294;2023-02-28T11:54:11;40.38;;;7.07;;
58681;SDS011;44460;40.162;18.294;2023-02-28T11:56:57;49.95;;;8.80;;
58681;SDS011;44460;40.162;18.294;2023-02-28T12:02:19;57.80;;;7.07;;
58681;SDS011;44460;40.162;18.294;2023-02-28T12:04:54;58.38;;;7.40;;
58681;SDS011;44460;40.162;18.294;2023-02-28T12:09:59;48.88;;;7.22;;
58681;SDS011;44460;40.162;18.294;2023-02-28T12:15:23;47.13;;;6.18;;
58681;SDS011;44460;40.162;18.294;2023-02-28T12:22:52;52.72;;;7.10;;
58681;SDS011;44460;40.162;18.294;2023-02-28T12:25:22;55.75;;;6.45;;
58681;SDS011;44460;40.162;18.294;2023-02-28T12:27:49;55.03;;;6.68;;
58681;SDS011;44460;40.162;18.294;2023-02-28T12:30:28;59.40;;;7.10;;
58681;SDS011;44460;40.162;18.294;2023-02-28T12:33:03;112.80;;;28.55;;
58681;SDS011;44460;40.162;18.294;2023-02-28T12:35:33;65.97;;;8.75;;
58681;SDS011;44460;40.162;18.294;2023-02-28T12:38:10;57.80;;;9.35;;
58681;SDS011;44460;40.162;18.294;2023-02-28T12:40:49;58.80;;;7.47;;
58681;SDS011;44460;40.162;18.294;2023-02-28T12:43:16;51.42;;;6.50;;
58681;SDS011;44460;40.162;18.294;2023-02-28T12:45:47;50.10;;;6.70;;
58681;SDS011;44460;40.162;18.294;2023-02-28T12:49:00;55.45;;;6.70;;
58681;SDS011;44460;40.162;18.294;2023-02-28T12:50:59;67.55;;;7.97;;
58681;SDS011;44460;40.162;18.294;2023-02-28T12:53:27;62.00;;;6.47;;
58681;SDS011;44460;40.162;18.294;2023-02-28T13:01:14;55.42;;;7.05;;
58681;SDS011;44460;40.162;18.294;2023-02-28T13:03:37;52.50;;;6.82;;
58681;SDS011;44460;40.162;18.294;2023-02-28T13:06:10;53.00;;;8.25;;
58681;SDS011;44460;40.162;18.294;2023-02-28T13:17:26;48.75;;;7.43;;
58681;SDS011;44460;40.162;18.294;2023-02-28T13:22:04;58.50;;;7.47;;
58681;SDS011;44460;40.162;18.294;2023-02-28T13:29:34;56.75;;;7.00;;
58681;SDS011;44460;40.162;18.294;2023-02-28T13:34:32;68.75;;;7.15;;
58681;SDS011;44460;40.162;18.294;2023-02-28T13:47:35;70.38;;;8.05;;
58681;SDS011;44460;40.162;18.294;2023-02-28T13:50:14;53.00;;;6.07;;
58681;SDS011;44460;40.162;18.294;2023-02-28T13:57:56;47.10;;;6.28;;
58681;SDS011;44460;40.162;18.294;2023-02-28T14:05:19;47.33;;;6.38;;
58681;SDS011;44460;40.162;18.294;2023-02-28T14:07:52;47.42;;;5.20;;
58681;SDS011;44460;40.162;18.294;2023-02-28T14:12:54;72.35;;;6.85;;
58681;SDS011;44460;40.162;18.294;2023-02-28T14:18:13;38.00;;;5.95;;
58681;SDS011;44460;40.162;18.294;2023-02-28T14:20:39;50.00;;;6.78;;
58681;SDS011;44460;40.162;18.294;2023-02-28T14:38:48;52.55;;;6.65;;
58681;SDS011;44460;40.162;18.294;2023-02-28T14:43:52;37.45;;;5.55;;
58681;SDS011;44460;40.162;18.294;2023-02-28T14:46:19;48.75;;;5.65;;
58681;SDS011;44460;40.162;18.294;2023-02-28T14:48:45;49.63;;;5.65;;
58681;SDS011;44460;40.162;18.294;2023-02-28T14:51:11;34.65;;;5.25;;
58681;SDS011;44460;40.162;18.294;2023-02-28T14:53:37;48.97;;;6.00;;
58681;SDS011;44460;40.162;18.294;2023-02-28T14:56:02;38.50;;;5.70;;
58681;SDS011;44460;40.162;18.294;2023-02-28T14:58:32;42.10;;;5.32;;
58681;SDS011;44460;40.162;18.294;2023-02-28T15:00:59;62.63;;;7.97;;
58681;SDS011;44460;40.162;18.294;2023-02-28T15:05:58;47.95;;;6.55;;
58681;SDS011;44460;40.162;18.294;2023-02-28T15:08:24;49.80;;;8.03;;
58681;SDS011;44460;40.162;18.294;2023-02-28T15:10:57;49.58;;;5.93;;
58681;SDS011;44460;40.162;18.294;2023-02-28T15:13:24;45.60;;;5.97;;
58681;SDS011;44460;40.162;18.294;2023-02-28T15:15:53;43.03;;;5.53;;
58681;SDS011;44460;40.162;18.294;2023-02-28T15:20:45;50.35;;;7.43;;
58681;SDS011;44460;40.162;18.294;2023-02-28T15:23:10;38.42;;;4.95;;
58681;SDS011;44460;40.162;18.294;2023-02-28T15:25:36;48.95;;;6.00;;
58681;SDS011;44460;40.162;18.294;2023-02-28T15:28:02;45.17;;;5.75;;
58681;SDS011;44460;40.162;18.294;2023-02-28T15:30:28;63.70;;;11.50;;
58681;SDS011;44460;40.162;18.294;2023-02-28T15:35:38;50.25;;;6.45;;
58681;SDS011;44460;40.162;18.294;2023-02-28T15:38:23;41.22;;;6.65;;
58681;SDS011;44460;40.162;18.294;2023-02-28T15:40:56;36.60;;;6.53;;
58681;SDS011;44460;40.162;18.294;2023-02-28T15:45:51;52.25;;;6.75;;
58681;SDS011;44460;40.162;18.294;2023-02-28T15:50:53;47.58;;;6.85;;
58681;SDS011;44460;40.162;18.294;2023-02-28T15:53:21;58.30;;;6.78;;
58681;SDS011;44460;40.162;18.294;2023-02-28T15:55:52;57.95;;;6.57;;
58681;SDS011;44460;40.162;18.294;2023-02-28T15:58:17;44.00;;;7.00;;
58681;SDS011;44460;40.162;18.294;2023-02-28T16:00:43;49.78;;;7.15;;
58681;SDS011;44460;40.162;18.294;2023-02-28T16:06:12;48.25;;;7.00;;
58681;SDS011;44460;40.162;18.294;2023-02-28T16:08:47;48.22;;;7.72;;
58681;SDS011;44460;40.162;18.294;2023-02-28T16:11:13;54.88;;;7.57;;
58681;SDS011;44460;40.162;18.294;2023-02-28T16:13:43;59.85;;;8.05;;
58681;SDS011;44460;40.162;18.294;2023-02-28T16:16:14;51.70;;;6.78;;
58681;SDS011;44460;40.162;18.294;2023-02-28T16:18:40;48.33;;;7.38;;
58681;SDS011;44460;40.162;18.294;2023-02-28T16:21:05;52.25;;;8.77;;
58681;SDS011;44460;40.162;18.294;2023-02-28T16:23:30;56.40;;;9.57;;
58681;SDS011;44460;40.162;18.294;2023-02-28T16:25:56;73.63;;;12.75;;
58681;SDS011;44460;40.162;18.294;2023-02-28T16:28:25;66.47;;;13.35;;
58681;SDS011;44460;40.162;18.294;2023-02-28T16:30:56;62.10;;;11.20;;
58681;SDS011;44460;40.162;18.294;2023-02-28T16:33:21;52.08;;;10.80;;
58681;SDS011;44460;40.162;18.294;2023-02-28T16:35:47;54.22;;;13.70;;
58681;SDS011;44460;40.162;18.294;2023-02-28T16:38:12;47.90;;;9.63;;
58681;SDS011;44460;40.162;18.294;2023-02-28T16:40:38;47.05;;;9.40;;
58681;SDS011;44460;40.162;18.294;2023-02-28T16:43:05;58.17;;;9.43;;
58681;SDS011;44460;40.162;18.294;2023-02-28T16:45:32;55.95;;;8.20;;
58681;SDS011;44460;40.162;18.294;2023-02-28T16:47:58;43.10;;;7.55;;
58681;SDS011;44460;40.162;18.294;2023-02-28T16:50:25;52.28;;;7.97;;
58681;SDS011;44460;40.162;18.294;2023-02-28T16:52:51;57.47;;;8.57;;